Flight Track Log - Related Links

Times and Time Zones

All times are in EDT time to prevent confusion due to time zone crossing. See the WWW448 flight status page for this flight to view local times or setup timezone preferences in your user account.

Time Position Orientation Groundspeed Altitude Reporting Facility
EDT Latitude Longitude Course Direction KTS MPH feet Rate Location/Type
Thu 10:37:13 PM 37.8725 -116.8506 186° South 219 252 8,500  Level Los Angeles Center
Thu 10:38:15 PM 37.9206 -116.9058 318° Northwest 263 303 10,600 2,129 Climbing Los Angeles Center
Thu 10:39:17 PM 38.0003 -117.0036 316° Northwest 315 362 12,900 2,661 Climbing Los Angeles Center
Thu 10:40:19 PM 37.9883 -117.1389 264° West 376 433 16,100 2,758 Climbing Los Angeles Center
Thu 10:41:21 PM 37.9078 -117.1925 208° Southwest 405 466 18,600 1,403 Climbing Los Angeles Center
Thu 10:42:00 PM 37.7239 -117.2135 186° South  Level FlightAware Approximate
Thu 10:42:23 PM 37.7442 -117.2142 186° South 420 483 19,000  Level Los Angeles Center
Thu 10:43:25 PM 37.6258 -117.2292 186° South 424 488 19,000  Level Los Angeles Center
Thu 10:44:27 PM 37.5078 -117.2444 186° South 425 489 19,000  Level Los Angeles Center
Thu 10:45:29 PM 37.4108 -117.1758 151° Southeast 408 470 19,000  Level Los Angeles Center
Thu 10:46:31 PM 37.3233 -117.0900 142° Southeast 402 463 19,000  Level Los Angeles Center
Thu 10:47:33 PM 37.2272 -117.0131 147° Southeast 408 470 19,000  Level Los Angeles Center
Thu 10:48:35 PM 37.1306 -116.9369 148° Southeast 410 472 19,000  Level Los Angeles Center
Thu 10:49:37 PM 37.0169 -116.8439 147° Southeast 408 470 19,000  Level Los Angeles Center
Thu 10:50:39 PM 36.9239 -116.7644 146° Southeast 407 468 19,000  Level Los Angeles Center
Thu 10:51:41 PM 36.8300 -116.6878 147° Southeast 404 465 19,000  Level Los Angeles Center
Thu 10:52:43 PM 36.7617 -116.5819 129° Southeast 395 455 19,000  Level Los Angeles Center
Thu 10:53:57 PM 36.7003 -116.4683 124° Southeast 395 455 19,000  Level Los Angeles Center
Thu 10:55:00 PM 36.6525 -116.3189 112° Southeast 389 448 19,000  Level Los Angeles Center
Thu 10:56:02 PM 36.6094 -116.1667 109° East 390 449 19,000  Level Los Angeles Center
Thu 10:57:16 PM 36.5728 -116.0394 110° East 391 450 19,000  Level Los Angeles Center
Thu 10:58:00 PM 36.5072 -115.9258 126° Southeast 393 452 19,000  Level Los Angeles Center
Thu 10:58:18 PM 36.4961 -115.8958 115° Southeast 404 465 19,000  Level Los Angeles Center
Thu 10:58:49 PM 36.4592 -115.8400 129° Southeast 395 455 19,000  Level Los Angeles Center
Thu 10:59:20 PM 36.4369 -115.7947 121° Southeast 387 445 19,000 -689 Level Los Angeles Center
Thu 10:59:50 PM 36.3964 -115.7269 127° Southeast 392 451 18,300 -1,645 Descending Los Angeles Center
Thu 11:00:22 PM 36.3753 -115.6847 122° Southeast 389 448 17,300 -2,556 Descending Los Angeles Center
Thu 11:00:44 PM 36.3408 -115.6275 127° Southeast 379 436 16,000 -2,032 Descending Los Angeles Center
Thu 11:01:24 PM 36.2956 -115.5786 139° Southeast 383 441 15,200 -1,075 Descending Los Angeles Center
Thu 11:01:51 PM 36.2500 -115.5453 149° Southeast 344 396 14,800 -484 Descending Los Angeles Center
Thu 11:02:26 PM 36.2333 -115.5300 144° Southeast 349 402 14,700 -1,279 Descending Los Angeles Center
Thu 11:02:52 PM 36.1756 -115.4894 150° Southeast 315 362 13,500 -1,935 Descending Los Angeles Center
Thu 11:03:28 PM 36.1456 -115.4622 144° Southeast 317 365 12,700 -1,745 Descending Los Angeles Center
Thu 11:03:47 PM 36.1083 -115.4369 151° Southeast 311 358 11,900 -1,645 Descending Los Angeles Center
Thu 11:04:30 PM 36.0578 -115.3953 146° Southeast 311 358 11,000 -806 Descending Los Angeles Center
Thu 11:04:54 PM 36.0331 -115.3683 139° Southeast 295 339 11,000  Level Los Angeles Center
Thu 11:05:32 PM 36.0272 -115.3125 97° East 290 334 11,000 -400 Level Los Angeles Center
Thu 11:05:54 PM 36.0239 -115.2758 96° East 271 312 10,600 -1,216 Descending Los Angeles Center
Thu 11:06:46 PM 36.0183 -115.2019 95° East 272 313 9,500 -1,316 Descending Los Angeles Center
Thu 11:07:48 PM 35.9792 -115.1425 129° Southeast 265 305 8,100 -726 Descending Los Angeles Center
Thu 11:08:50 PM 35.9139 -115.1647 195° South 243 280 8,000 -634 Descending Los Angeles Center
Thu 11:09:51 PM 35.8794 -115.2169 231° Southwest 195 224 6,800 -1,131 Descending Los Angeles Center
Thu 11:10:52 PM 35.9178 -115.2547 321° Northwest 190 219 5,700 -1,086 Descending Los Angeles Center
Thu 11:11:47 PM 35.9631 -115.2347 20° North 184 212 4,700 -1,075 Descending Los Angeles Center
Thu 11:13:06 PM 36.0208 -115.2022 24° Northeast 171 197 3,300 -908 Descending Los Angeles Center
Thu 11:13:46 PM 36.0444 -115.1881 26° Northeast 128 147 2,900 -408 Descending Los Angeles Center
Thu 11:14:49 PM 36.0753 -115.1739 20° North 129 148 2,600 -286 Descending Los Angeles Center
Thu 11:16:00 PM 36.0801 -115.1523 238° Southwest  Level Estimated
Thu 11:23:00 PM 36.0801 -115.1523 270° West  Level Estimated

Login

Don't have an account? Register now (free) for customized features, flight alerts, and more!